Time;durP1;ratioP1;P1;durP2;ratioP2;P2;SDS_P1;SDS_P2;PMS_P1;PMS_P2;Temp;Humidity;BMP_temperature;BMP_pressure;BME280_temperature;BME280_humidity;BME280_pressure;Samples;Min_cycle;Max_cycle;Signal;HPM_P1;HPM_P2
2021/12/19 00:00:47;;;;;;;10.50;7.90;;;;;;;;;;5071737;28;20505;-61
2021/12/19 00:08:52;;;;;;;11.40;7.03;;;;;;;;;;5072092;28;20397;-55
2021/12/19 00:11:20;;;;;;;9.87;8.33;;;;;;;;;;5071537;28;20910;-56
2021/12/19 00:13:46;;;;;;;12.70;7.57;;;;;;;;;;5071551;28;20410;-55
2021/12/19 00:16:13;;;;;;;10.90;8.17;;;;;;;;;;5071744;28;20415;-55
2021/12/19 00:18:39;;;;;;;7.83;7.03;;;;;;;;;;5071703;28;20411;-56
2021/12/19 00:21:06;;;;;;;10.13;7.33;;;;;;;;;;5071334;28;20915;-55
2021/12/19 00:23:32;;;;;;;10.00;7.70;;;;;;;;;;5071660;28;20413;-55
2021/12/19 00:25:58;;;;;;;16.77;9.50;;;;;;;;;;5071509;28;20406;-55
2021/12/19 00:28:25;;;;;;;9.47;7.77;;;;;;;;;;5071473;28;20432;-57
2021/12/19 00:30:51;;;;;;;8.40;7.07;;;;;;;;;;5071335;28;20772;-55
2021/12/19 00:33:17;;;;;;;17.27;8.97;;;;;;;;;;5071357;28;20494;-55
2021/12/19 00:35:43;;;;;;;12.53;8.87;;;;;;;;;;5071363;28;20413;-55
2021/12/19 00:38:09;;;;;;;13.30;9.10;;;;;;;;;;5071540;28;20403;-57
2021/12/19 00:40:36;;;;;;;8.63;7.73;;;;;;;;;;5071045;28;21006;-56
2021/12/19 00:43:12;;;;;;;13.67;8.27;;;;;;;;;;5071496;28;20774;-55
2021/12/19 00:45:40;;;;;;;11.27;8.07;;;;;;;;;;5074760;28;20463;-59
2021/12/19 00:48:07;;;;;;;9.00;6.83;;;;;;;;;;5074823;28;20415;-56
2021/12/19 00:50:34;;;;;;;10.27;8.03;;;;;;;;;;5075142;28;20490;-55
2021/12/19 00:53:00;;;;;;;12.30;7.83;;;;;;;;;;5074614;28;20425;-57
2021/12/19 00:55:27;;;;;;;9.33;7.50;;;;;;;;;;5074659;28;20403;-56
2021/12/19 00:57:54;;;;;;;11.67;9.27;;;;;;;;;;5074855;28;20775;-58
2021/12/19 01:00:21;;;;;;;13.50;8.03;;;;;;;;;;5074880;28;20450;-59
2021/12/19 01:02:51;;;;;;;14.83;9.63;;;;;;;;;;5074972;28;20421;-56
2021/12/19 01:05:17;;;;;;;14.70;8.90;;;;;;;;;;5074520;28;20395;-56
2021/12/19 01:07:43;;;;;;;11.10;8.23;;;;;;;;;;5074475;28;20414;-55
2021/12/19 01:10:10;;;;;;;14.27;9.13;;;;;;;;;;5073380;28;20433;-57
2021/12/19 01:12:38;;;;;;;7.70;6.90;;;;;;;;;;5074390;28;20425;-57
2021/12/19 01:15:08;;;;;;;17.73;8.87;;;;;;;;;;5074544;28;20445;-56
2021/12/19 01:17:34;;;;;;;16.07;9.23;;;;;;;;;;5074450;28;20422;-60
2021/12/19 01:20:00;;;;;;;10.87;7.70;;;;;;;;;;5072830;28;20462;-55
2021/12/19 01:22:26;;;;;;;12.43;8.70;;;;;;;;;;5074603;28;20783;-55
2021/12/19 01:24:52;;;;;;;10.37;7.33;;;;;;;;;;5074260;28;20410;-56
2021/12/19 01:27:18;;;;;;;13.13;8.43;;;;;;;;;;5074080;28;20422;-59
2021/12/19 01:29:44;;;;;;;13.03;9.20;;;;;;;;;;5074332;28;20411;-58
2021/12/19 01:32:10;;;;;;;11.40;9.30;;;;;;;;;;5074257;28;20411;-64
2021/12/19 01:34:36;;;;;;;15.07;9.70;;;;;;;;;;5073101;28;20529;-57
2021/12/19 01:37:02;;;;;;;13.00;8.87;;;;;;;;;;5073964;28;20411;-62
2021/12/19 01:39:28;;;;;;;13.53;9.47;;;;;;;;;;5074043;28;20410;-57
2021/12/19 01:41:56;;;;;;;13.37;8.97;;;;;;;;;;5073811;28;20474;-59
2021/12/19 01:44:23;;;;;;;13.27;8.47;;;;;;;;;;5074224;28;20405;-58
2021/12/19 01:46:50;;;;;;;13.60;9.23;;;;;;;;;;5073850;28;20414;-61
2021/12/19 01:49:17;;;;;;;12.70;8.57;;;;;;;;;;5072440;28;20414;-60
2021/12/19 01:51:43;;;;;;;10.53;7.80;;;;;;;;;;5073961;28;20418;-60
2021/12/19 01:54:09;;;;;;;12.10;8.73;;;;;;;;;;5073896;28;20406;-58
2021/12/19 01:56:35;;;;;;;13.80;7.97;;;;;;;;;;5072227;28;20433;-58
2021/12/19 01:59:01;;;;;;;9.60;8.03;;;;;;;;;;5055677;28;20762;-54
2021/12/19 02:01:28;;;;;;;8.87;7.50;;;;;;;;;;5073381;28;20962;-60
2021/12/19 02:03:53;;;;;;;12.60;7.50;;;;;;;;;;5073379;28;20403;-54
2021/12/19 02:06:19;;;;;;;12.80;8.37;;;;;;;;;;5073407;28;20502;-62
2021/12/19 02:08:49;;;;;;;10.93;7.50;;;;;;;;;;5073665;28;20755;-61
2021/12/19 02:11:15;;;;;;;11.07;7.87;;;;;;;;;;5072028;28;20517;-62
2021/12/19 02:13:42;;;;;;;15.60;8.53;;;;;;;;;;5073589;28;20402;-56
2021/12/19 02:16:08;;;;;;;16.23;9.43;;;;;;;;;;5073483;28;20425;-63
2021/12/19 02:18:34;;;;;;;15.03;9.20;;;;;;;;;;5073696;28;20439;-61
2021/12/19 02:21:00;;;;;;;14.07;8.47;;;;;;;;;;5072983;28;20474;-57
2021/12/19 02:23:28;;;;;;;11.77;8.07;;;;;;;;;;5073389;28;20415;-64
2021/12/19 02:25:55;;;;;;;10.63;8.43;;;;;;;;;;5073022;28;20430;-56
2021/12/19 02:28:21;;;;;;;16.10;9.17;;;;;;;;;;5073066;28;20421;-61
2021/12/19 02:30:48;;;;;;;13.90;9.20;;;;;;;;;;5073314;28;20422;-57
2021/12/19 02:33:18;;;;;;;15.23;9.70;;;;;;;;;;5073155;28;20450;-55
2021/12/19 02:35:50;;;;;;;14.87;9.87;;;;;;;;;;5072599;28;20414;-56
2021/12/19 02:49:01;;;;;;;14.17;8.40;;;;;;;;;;5072915;28;20413;-54
2021/12/19 02:51:33;;;;;;;13.97;9.50;;;;;;;;;;5072673;28;20411;-55
2021/12/19 02:54:00;;;;;;;11.37;9.17;;;;;;;;;;5072942;28;20534;-54
2021/12/19 02:56:27;;;;;;;17.27;9.40;;;;;;;;;;5072596;28;20415;-54
2021/12/19 02:58:53;;;;;;;15.90;9.70;;;;;;;;;;5072606;28;20895;-54
2021/12/19 03:01:20;;;;;;;11.00;8.13;;;;;;;;;;5072695;28;20828;-55
2021/12/19 03:03:46;;;;;;;14.77;8.30;;;;;;;;;;5072653;28;20458;-54
2021/12/19 03:06:13;;;;;;;14.10;9.17;;;;;;;;;;5072294;28;20867;-53
2021/12/19 03:08:44;;;;;;;10.10;8.40;;;;;;;;;;5072424;28;20498;-54
2021/12/19 03:19:06;;;;;;;9.43;7.37;;;;;;;;;;5072409;28;20405;-54
2021/12/19 03:21:32;;;;;;;13.13;7.10;;;;;;;;;;5072149;28;20819;-56
2021/12/19 03:23:58;;;;;;;15.07;8.70;;;;;;;;;;5072203;28;20402;-55
2021/12/19 03:26:24;;;;;;;12.50;8.20;;;;;;;;;;5072181;28;20494;-56
2021/12/19 03:28:50;;;;;;;15.00;7.70;;;;;;;;;;5072209;28;20775;-54
2021/12/19 03:31:16;;;;;;;11.03;7.20;;;;;;;;;;5072092;28;20403;-55
2021/12/19 03:33:42;;;;;;;16.20;8.63;;;;;;;;;;5072178;28;20406;-56
2021/12/19 03:36:08;;;;;;;11.80;7.70;;;;;;;;;;5072215;28;20407;-58
2021/12/19 03:38:39;;;;;;;7.67;6.00;;;;;;;;;;5071903;28;20413;-55
2021/12/19 03:41:19;;;;;;;12.07;7.70;;;;;;;;;;5071957;28;20470;-58
2021/12/19 03:43:46;;;;;;;15.90;7.50;;;;;;;;;;5072290;28;20403;-57
2021/12/19 03:46:12;;;;;;;12.70;8.60;;;;;;;;;;5072101;28;20772;-55
2021/12/19 03:48:38;;;;;;;16.73;8.43;;;;;;;;;;5072203;28;20783;-58
2021/12/19 03:51:04;;;;;;;12.07;8.13;;;;;;;;;;5071893;28;20464;-54
2021/12/19 03:53:30;;;;;;;9.70;6.40;;;;;;;;;;5072168;28;20395;-57
2021/12/19 03:55:56;;;;;;;7.67;5.67;;;;;;;;;;5071826;28;20497;-54
2021/12/19 03:58:22;;;;;;;16.17;8.53;;;;;;;;;;5071902;28;20902;-56
2021/12/19 04:00:49;;;;;;;10.63;8.33;;;;;;;;;;5072000;28;20454;-55
2021/12/19 04:03:20;;;;;;;11.63;7.07;;;;;;;;;;5071824;28;20422;-54
2021/12/19 04:05:50;;;;;;;11.10;6.57;;;;;;;;;;5071830;28;20395;-54
2021/12/19 04:08:16;;;;;;;8.00;6.60;;;;;;;;;;5071900;28;20761;-56
2021/12/19 04:10:42;;;;;;;9.20;6.33;;;;;;;;;;5071894;28;20407;-56
2021/12/19 04:13:09;;;;;;;9.73;7.20;;;;;;;;;;5071758;28;20407;-55
2021/12/19 04:15:35;;;;;;;12.27;6.83;;;;;;;;;;5071639;28;20433;-56
2021/12/19 04:18:01;;;;;;;8.10;6.30;;;;;;;;;;5070602;28;20597;-59
2021/12/19 04:20:27;;;;;;;11.53;5.60;;;;;;;;;;5074600;28;20473;-58
2021/12/19 04:22:53;;;;;;;12.53;6.87;;;;;;;;;;5075271;28;20406;-57
2021/12/19 04:25:20;;;;;;;12.00;7.30;;;;;;;;;;5075255;28;20906;-58
2021/12/19 04:27:46;;;;;;;14.43;8.17;;;;;;;;;;5075217;28;20410;-56
2021/12/19 04:30:17;;;;;;;14.97;8.00;;;;;;;;;;5075285;28;20411;-57
2021/12/19 04:32:46;;;;;;;12.67;7.70;;;;;;;;;;5075314;28;20407;-56
2021/12/19 04:35:13;;;;;;;10.73;7.73;;;;;;;;;;5075212;28;20417;-55
2021/12/19 04:40:35;;;;;;;12.43;7.60;;;;;;;;;;5075216;28;20499;-55
2021/12/19 04:53:52;;;;;;;7.20;6.50;;;;;;;;;;5075247;28;20419;-59
2021/12/19 04:56:36;;;;;;;12.37;8.30;;;;;;;;;;5074873;28;20826;-55
2021/12/19 05:15:25;;;;;;;11.50;7.57;;;;;;;;;;5074733;28;20457;-60
2021/12/19 05:17:53;;;;;;;11.40;8.60;;;;;;;;;;5074461;28;20526;-55
2021/12/19 05:20:23;;;;;;;10.87;8.27;;;;;;;;;;5074200;28;20883;-54
2021/12/19 05:22:52;;;;;;;10.83;8.57;;;;;;;;;;5074537;28;20411;-56
2021/12/19 05:25:18;;;;;;;12.13;9.43;;;;;;;;;;5074331;28;20446;-54
2021/12/19 05:27:54;;;;;;;12.60;7.37;;;;;;;;;;5073097;28;20566;-57
2021/12/19 05:30:21;;;;;;;10.33;7.20;;;;;;;;;;5072480;28;20421;-55
2021/12/19 05:32:48;;;;;;;11.67;8.60;;;;;;;;;;5074185;28;20403;-55
2021/12/19 05:35:21;;;;;;;13.17;9.63;;;;;;;;;;5074172;28;20461;-54
2021/12/19 05:46:00;;;;;;;13.47;9.40;;;;;;;;;;5074093;28;20406;-54
2021/12/19 05:48:26;;;;;;;10.83;7.10;;;;;;;;;;5073988;28;20399;-56
2021/12/19 05:50:52;;;;;;;13.77;8.40;;;;;;;;;;5073803;28;20463;-56
2021/12/19 05:53:18;;;;;;;9.90;8.47;;;;;;;;;;5073763;28;20414;-56
2021/12/19 05:55:44;;;;;;;10.70;7.57;;;;;;;;;;5073716;28;20422;-56
2021/12/19 05:58:10;;;;;;;12.70;9.63;;;;;;;;;;5073833;28;20489;-57
2021/12/19 06:00:36;;;;;;;11.03;7.93;;;;;;;;;;5073474;28;20477;-59
2021/12/19 06:03:03;;;;;;;18.10;9.30;;;;;;;;;;5073441;28;20892;-55
2021/12/19 06:05:29;;;;;;;17.07;8.90;;;;;;;;;;5073321;28;20475;-57
2021/12/19 06:07:55;;;;;;;12.37;8.90;;;;;;;;;;5073390;28;20406;-62
2021/12/19 06:10:22;;;;;;;9.60;8.03;;;;;;;;;;5073653;28;20418;-57
2021/12/19 06:12:48;;;;;;;11.73;8.53;;;;;;;;;;5073554;28;20477;-57
2021/12/19 06:15:14;;;;;;;12.67;8.70;;;;;;;;;;5071980;28;20419;-60
2021/12/19 06:17:42;;;;;;;8.10;7.23;;;;;;;;;;5073306;28;20418;-58
2021/12/19 06:20:09;;;;;;;11.80;8.60;;;;;;;;;;5073084;28;20595;-55
2021/12/19 06:22:35;;;;;;;12.93;7.60;;;;;;;;;;5073127;28;20421;-55
2021/12/19 06:25:01;;;;;;;9.93;8.10;;;;;;;;;;5073110;28;20501;-57
2021/12/19 06:27:27;;;;;;;12.60;9.60;;;;;;;;;;5073082;28;20455;-56
2021/12/19 06:29:53;;;;;;;9.27;8.13;;;;;;;;;;5073139;28;20411;-58
2021/12/19 06:32:19;;;;;;;12.33;8.90;;;;;;;;;;5073012;28;20421;-54
2021/12/19 06:34:45;;;;;;;10.20;8.03;;;;;;;;;;5073227;28;20467;-56
2021/12/19 06:37:11;;;;;;;12.23;8.10;;;;;;;;;;5072875;28;20568;-58
2021/12/19 06:39:39;;;;;;;9.60;8.00;;;;;;;;;;5073093;28;20411;-62
2021/12/19 06:42:07;;;;;;;9.37;8.37;;;;;;;;;;5071967;28;20974;-55
2021/12/19 06:44:33;;;;;;;7.80;6.77;;;;;;;;;;5072668;28;20498;-54
2021/12/19 06:47:00;;;;;;;12.57;8.63;;;;;;;;;;5072805;28;20509;-56
2021/12/19 06:49:26;;;;;;;11.30;8.80;;;;;;;;;;5072719;28;20411;-54
2021/12/19 06:51:52;;;;;;;10.27;8.60;;;;;;;;;;5072772;28;20407;-57
2021/12/19 06:54:18;;;;;;;10.40;8.30;;;;;;;;;;5072603;28;20905;-56
2021/12/19 06:56:44;;;;;;;10.23;8.30;;;;;;;;;;5071315;28;20422;-58
2021/12/19 06:59:10;;;;;;;9.83;7.50;;;;;;;;;;5072986;28;20814;-54
2021/12/19 07:01:40;;;;;;;6.37;5.77;;;;;;;;;;5072813;28;20477;-55
2021/12/19 07:04:06;;;;;;;10.20;8.13;;;;;;;;;;5072888;28;20486;-54
2021/12/19 07:06:32;;;;;;;8.83;7.93;;;;;;;;;;5072680;28;20419;-55
2021/12/19 07:08:58;;;;;;;7.50;6.80;;;;;;;;;;5072734;28;20406;-57
2021/12/19 07:11:24;;;;;;;9.43;8.10;;;;;;;;;;5071246;28;20828;-56
2021/12/19 07:13:53;;;;;;;11.23;7.47;;;;;;;;;;5072628;28;20895;-55
2021/12/19 07:16:19;;;;;;;8.47;7.57;;;;;;;;;;5072802;28;20415;-59
2021/12/19 07:18:46;;;;;;;8.70;7.47;;;;;;;;;;5072450;28;20411;-52
2021/12/19 07:21:14;;;;;;;6.67;6.00;;;;;;;;;;5072309;28;20489;-55
2021/12/19 07:23:40;;;;;;;9.80;7.70;;;;;;;;;;5072446;28;20406;-54
2021/12/19 07:26:06;;;;;;;7.80;7.00;;;;;;;;;;5072484;28;20517;-54
2021/12/19 07:28:32;;;;;;;9.90;8.50;;;;;;;;;;5072258;28;20407;-53
2021/12/19 07:30:58;;;;;;;8.20;7.37;;;;;;;;;;5072500;28;20438;-56
2021/12/19 07:33:24;;;;;;;10.90;7.93;;;;;;;;;;5072316;28;20784;-55
2021/12/19 07:35:52;;;;;;;12.73;9.10;;;;;;;;;;5072258;28;20759;-56
2021/12/19 07:38:26;;;;;;;8.70;7.57;;;;;;;;;;5072163;28;20933;-56
2021/12/19 07:40:54;;;;;;;9.80;7.33;;;;;;;;;;5072334;28;20818;-56
2021/12/19 07:43:20;;;;;;;8.33;7.40;;;;;;;;;;5072212;28;20430;-56
2021/12/19 07:45:46;;;;;;;10.13;8.00;;;;;;;;;;5070905;28;20431;-53
2021/12/19 07:48:12;;;;;;;9.70;7.80;;;;;;;;;;5072150;28;20407;-57
2021/12/19 07:50:39;;;;;;;7.50;6.80;;;;;;;;;;5072092;28;20405;-56
2021/12/19 07:53:05;;;;;;;8.60;7.80;;;;;;;;;;5073211;28;20567;-54
2021/12/19 07:55:32;;;;;;;7.77;7.00;;;;;;;;;;5076125;28;20490;-63
2021/12/19 07:57:58;;;;;;;7.63;6.70;;;;;;;;;;5076328;28;20690;-54
2021/12/19 08:00:24;;;;;;;7.70;6.90;;;;;;;;;;5075854;28;20458;-53
2021/12/19 08:02:51;;;;;;;8.07;7.37;;;;;;;;;;5074545;28;20834;-57
2021/12/19 08:05:18;;;;;;;10.33;7.50;;;;;;;;;;5076036;28;20501;-57
2021/12/19 08:07:47;;;;;;;10.53;8.20;;;;;;;;;;5075832;28;20411;-55
2021/12/19 08:11:39;;;;;;;9.33;7.00;;;;;;;;;;5076096;28;20421;-56
2021/12/19 08:13:00;;;;;;;15.30;7.90;;;;;;;;;;5075525;28;20838;-56
2021/12/19 08:15:26;;;;;;;13.00;8.17;;;;;;;;;;5075775;28;20501;-57
2021/12/19 08:17:52;;;;;;;7.53;6.80;;;;;;;;;;5075498;28;20476;-56
2021/12/19 08:20:18;;;;;;;10.53;7.90;;;;;;;;;;5075130;28;20826;-55
2021/12/19 08:22:47;;;;;;;8.50;7.60;;;;;;;;;;5075533;28;20422;-55
2021/12/19 08:25:13;;;;;;;7.43;6.57;;;;;;;;;;5075747;28;20413;-55
2021/12/19 08:27:39;;;;;;;7.93;7.13;;;;;;;;;;5075516;28;20470;-58
2021/12/19 08:30:08;;;;;;;8.70;7.33;;;;;;;;;;5075281;28;20910;-62
2021/12/19 08:32:34;;;;;;;8.60;6.90;;;;;;;;;;5075221;28;20470;-63
2021/12/19 08:34:59;;;;;;;8.00;6.40;;;;;;;;;;5075164;28;20449;-62
2021/12/19 08:37:26;;;;;;;8.17;7.37;;;;;;;;;;5075190;28;20504;-58
2021/12/19 08:39:51;;;;;;;7.73;7.03;;;;;;;;;;5075285;28;20971;-55
2021/12/19 08:42:18;;;;;;;9.10;7.93;;;;;;;;;;5074922;28;20502;-57
2021/12/19 08:44:44;;;;;;;8.30;7.50;;;;;;;;;;5075255;28;20407;-55
2021/12/19 08:47:11;;;;;;;7.30;6.60;;;;;;;;;;5075421;28;20429;-56
2021/12/19 08:49:37;;;;;;;6.87;6.17;;;;;;;;;;5074902;28;20760;-57
2021/12/19 08:52:04;;;;;;;6.77;6.07;;;;;;;;;;5073869;28;20406;-55
2021/12/19 08:54:31;;;;;;;9.33;7.37;;;;;;;;;;5074737;28;20509;-55
2021/12/19 08:56:57;;;;;;;6.70;5.83;;;;;;;;;;5074809;28;20407;-55
2021/12/19 08:59:23;;;;;;;7.47;6.70;;;;;;;;;;5074985;28;20745;-55
2021/12/19 09:01:49;;;;;;;8.20;7.40;;;;;;;;;;5074549;28;21012;-54
2021/12/19 09:04:15;;;;;;;6.03;5.40;;;;;;;;;;5074163;28;20452;-58
2021/12/19 09:06:42;;;;;;;7.53;6.10;;;;;;;;;;5074686;28;20411;-56
2021/12/19 09:09:08;;;;;;;7.57;6.33;;;;;;;;;;5074548;28;20439;-60
2021/12/19 09:11:34;;;;;;;8.50;7.10;;;;;;;;;;5074639;28;20422;-56
2021/12/19 09:14:00;;;;;;;8.77;6.77;;;;;;;;;;5074549;28;20708;-61
2021/12/19 09:16:26;;;;;;;9.10;7.40;;;;;;;;;;5074490;28;20899;-57
2021/12/19 09:18:52;;;;;;;8.60;6.47;;;;;;;;;;5074365;28;20406;-57
2021/12/19 09:21:18;;;;;;;8.33;7.20;;;;;;;;;;5074365;28;20466;-57
2021/12/19 09:23:45;;;;;;;11.20;7.30;;;;;;;;;;5074372;28;20851;-57
2021/12/19 09:26:11;;;;;;;8.97;7.10;;;;;;;;;;5074412;28;20501;-59
2021/12/19 09:28:37;;;;;;;6.07;5.53;;;;;;;;;;5074302;28;20922;-58
2021/12/19 09:31:04;;;;;;;7.03;6.33;;;;;;;;;;5074279;28;20407;-56
2021/12/19 09:33:30;;;;;;;6.10;5.60;;;;;;;;;;5074052;28;20411;-59
2021/12/19 09:35:57;;;;;;;8.23;7.00;;;;;;;;;;5074314;28;20406;-56
2021/12/19 09:38:23;;;;;;;8.80;7.40;;;;;;;;;;5074170;28;20486;-60
2021/12/19 09:40:49;;;;;;;10.23;9.13;;;;;;;;;;5073901;28;20469;-57
2021/12/19 09:43:41;;;;;;;12.67;6.33;;;;;;;;;;5074125;28;20411;-59
2021/12/19 09:46:08;;;;;;;15.03;7.80;;;;;;;;;;5074121;28;20406;-60
2021/12/19 09:48:34;;;;;;;6.87;6.23;;;;;;;;;;5073776;28;20415;-62
2021/12/19 09:51:00;;;;;;;10.23;7.10;;;;;;;;;;5073804;28;20460;-59
2021/12/19 09:53:26;;;;;;;6.80;6.00;;;;;;;;;;5073941;28;20705;-60
2021/12/19 09:55:52;;;;;;;10.20;6.80;;;;;;;;;;5073933;28;20409;-57
2021/12/19 09:58:18;;;;;;;10.77;7.43;;;;;;;;;;5073693;28;20402;-57
2021/12/19 10:00:44;;;;;;;8.23;7.43;;;;;;;;;;5073406;28;20819;-60
2021/12/19 10:03:13;;;;;;;8.50;7.00;;;;;;;;;;5073897;28;20418;-56
2021/12/19 10:05:39;;;;;;;8.00;6.90;;;;;;;;;;5073698;28;20439;-66
2021/12/19 10:08:05;;;;;;;6.93;6.30;;;;;;;;;;5073532;28;20422;-59
2021/12/19 10:10:36;;;;;;;8.33;6.67;;;;;;;;;;5073447;28;20449;-57
2021/12/19 10:13:02;;;;;;;9.70;6.77;;;;;;;;;;5073574;28;20441;-62
2021/12/19 10:15:30;;;;;;;7.23;6.50;;;;;;;;;;5073306;28;20451;-57
2021/12/19 10:18:07;;;;;;;12.10;7.63;;;;;;;;;;5073355;28;20464;-59
2021/12/19 10:20:40;;;;;;;6.00;5.40;;;;;;;;;;5073038;28;20553;-57
2021/12/19 10:23:15;;;;;;;6.87;6.17;;;;;;;;;;5073239;28;20442;-62
2021/12/19 10:25:42;;;;;;;13.37;7.63;;;;;;;;;;5072051;28;20402;-57
2021/12/19 10:28:09;;;;;;;10.10;6.70;;;;;;;;;;5073262;28;20972;-59
2021/12/19 10:30:42;;;;;;;9.57;6.40;;;;;;;;;;5073497;28;20478;-57
2021/12/19 10:33:10;;;;;;;6.43;5.83;;;;;;;;;;5073605;28;20407;-59
2021/12/19 10:35:36;;;;;;;7.67;6.80;;;;;;;;;;5072890;28;20464;-56
2021/12/19 10:38:03;;;;;;;8.67;7.80;;;;;;;;;;5072794;28;20411;-58
2021/12/19 10:40:29;;;;;;;11.83;8.57;;;;;;;;;;5072732;28;20462;-59
2021/12/19 10:42:59;;;;;;;14.60;6.83;;;;;;;;;;5071829;28;20453;-59
2021/12/19 10:45:33;;;;;;;7.83;7.03;;;;;;;;;;5072842;28;20830;-58
2021/12/19 10:48:17;;;;;;;7.43;6.70;;;;;;;;;;5072758;28;20513;-55
2021/12/19 10:51:04;;;;;;;9.40;7.70;;;;;;;;;;5072656;28;20411;-56
2021/12/19 10:53:32;;;;;;;11.23;7.60;;;;;;;;;;5072660;28;20398;-55
2021/12/19 10:55:58;;;;;;;9.50;7.03;;;;;;;;;;5072743;28;20446;-58
2021/12/19 10:58:27;;;;;;;9.03;7.43;;;;;;;;;;5071384;28;20919;-61
2021/12/19 11:00:55;;;;;;;7.00;6.27;;;;;;;;;;5071177;28;20470;-60
2021/12/19 11:03:36;;;;;;;10.40;6.90;;;;;;;;;;5072525;28;20467;-59
2021/12/19 11:06:13;;;;;;;6.80;6.17;;;;;;;;;;5071243;28;20943;-60
2021/12/19 11:08:39;;;;;;;6.83;6.20;;;;;;;;;;5072697;28;20485;-57
2021/12/19 11:11:05;;;;;;;7.60;6.00;;;;;;;;;;5072353;28;20467;-57
2021/12/19 11:13:31;;;;;;;6.83;6.20;;;;;;;;;;5072246;28;20458;-58
2021/12/19 11:15:57;;;;;;;7.47;6.50;;;;;;;;;;5072455;28;20772;-56
2021/12/19 11:18:23;;;;;;;6.07;5.43;;;;;;;;;;5072631;28;20906;-57
2021/12/19 11:20:49;;;;;;;12.50;7.67;;;;;;;;;;5072065;28;20478;-57
2021/12/19 11:23:15;;;;;;;6.07;5.47;;;;;;;;;;5072736;28;20876;-56
2021/12/19 11:25:43;;;;;;;8.47;7.17;;;;;;;;;;5071119;28;20900;-56
2021/12/19 11:28:10;;;;;;;6.83;6.17;;;;;;;;;;5072333;28;20779;-56
2021/12/19 11:30:36;;;;;;;6.37;5.77;;;;;;;;;;5072174;28;20456;-61
2021/12/19 11:33:28;;;;;;;8.10;6.60;;;;;;;;;;5072580;28;20934;-55
2021/12/19 11:35:56;;;;;;;6.70;5.23;;;;;;;;;;5072058;28;20407;-54
2021/12/19 11:38:23;;;;;;;7.90;5.17;;;;;;;;;;5072261;28;20411;-58
2021/12/19 11:40:51;;;;;;;5.03;4.70;;;;;;;;;;5071966;28;20470;-57
2021/12/19 11:43:17;;;;;;;6.13;5.63;;;;;;;;;;5072277;28;20421;-63
2021/12/19 11:45:52;;;;;;;6.20;4.40;;;;;;;;;;5072039;28;20410;-57
2021/12/19 11:48:24;;;;;;;6.50;5.90;;;;;;;;;;5072112;28;20430;-57
2021/12/19 11:50:53;;;;;;;5.27;4.83;;;;;;;;;;5072254;28;20784;-57
2021/12/19 11:53:19;;;;;;;8.10;5.60;;;;;;;;;;5071757;28;21076;-56
2021/12/19 11:55:52;;;;;;;7.57;5.70;;;;;;;;;;5071726;28;20475;-62
2021/12/19 11:58:20;;;;;;;5.23;4.80;;;;;;;;;;5070604;28;20433;-58
2021/12/19 12:01:01;;;;;;;5.13;4.70;;;;;;;;;;5071895;28;20458;-55
2021/12/19 12:03:28;;;;;;;8.80;5.73;;;;;;;;;;5071663;28;20459;-56
2021/12/19 12:06:00;;;;;;;5.90;5.40;;;;;;;;;;5071845;28;20517;-57
2021/12/19 12:08:27;;;;;;;4.83;4.37;;;;;;;;;;5071846;28;20405;-58
2021/12/19 12:10:57;;;;;;;4.67;4.37;;;;;;;;;;5071751;28;20418;-57
2021/12/19 12:13:37;;;;;;;5.40;4.93;;;;;;;;;;5071764;28;20491;-56
2021/12/19 12:16:24;;;;;;;4.67;4.23;;;;;;;;;;5071620;28;20386;-56
2021/12/19 12:18:57;;;;;;;4.73;4.40;;;;;;;;;;5071841;28;20403;-58
2021/12/19 12:21:34;;;;;;;4.47;4.17;;;;;;;;;;5070314;28;20463;-58
2021/12/19 12:24:03;;;;;;;5.23;4.73;;;;;;;;;;5071786;28;20417;-64
2021/12/19 12:26:38;;;;;;;4.73;4.43;;;;;;;;;;5071880;28;20415;-59
2021/12/19 12:29:04;;;;;;;5.37;4.87;;;;;;;;;;5071562;28;20493;-57
2021/12/19 12:31:30;;;;;;;4.00;3.80;;;;;;;;;;5071476;28;20399;-57
2021/12/19 12:33:57;;;;;;;5.50;5.10;;;;;;;;;;5071505;28;20407;-59
2021/12/19 12:36:23;;;;;;;4.47;4.27;;;;;;;;;;5071428;28;20407;-58
2021/12/19 12:38:52;;;;;;;6.93;5.70;;;;;;;;;;5071499;28;20411;-60
2021/12/19 12:44:16;;;;;;;4.60;4.30;;;;;;;;;;5059043;28;20824;-59
2021/12/19 12:46:42;;;;;;;4.30;4.10;;;;;;;;;;5075154;28;20456;-60
2021/12/19 12:49:14;;;;;;;6.60;5.03;;;;;;;;;;5073675;28;20399;-57
2021/12/19 12:51:42;;;;;;;7.80;4.80;;;;;;;;;;5074903;28;20406;-60
2021/12/19 12:54:13;;;;;;;4.63;4.30;;;;;;;;;;5075145;28;20991;-55
2021/12/19 12:56:45;;;;;;;5.53;4.90;;;;;;;;;;5073612;28;20411;-58
2021/12/19 12:59:12;;;;;;;4.97;4.20;;;;;;;;;;5075004;28;20489;-60
2021/12/19 13:01:42;;;;;;;4.77;4.40;;;;;;;;;;5074679;28;20823;-55
2021/12/19 13:04:09;;;;;;;4.47;3.90;;;;;;;;;;5075025;28;20456;-56
2021/12/19 13:06:47;;;;;;;4.17;4.00;;;;;;;;;;5074610;28;20406;-57
2021/12/19 13:09:13;;;;;;;4.50;4.30;;;;;;;;;;5074717;28;20493;-57
2021/12/19 13:11:40;;;;;;;4.10;3.90;;;;;;;;;;5074770;28;20486;-60
2021/12/19 13:14:17;;;;;;;5.10;4.60;;;;;;;;;;5074562;28;20415;-57
2021/12/19 13:16:54;;;;;;;4.47;4.07;;;;;;;;;;5074612;28;20802;-56
2021/12/19 13:19:40;;;;;;;4.70;4.40;;;;;;;;;;5074521;28;20787;-57
2021/12/19 13:22:08;;;;;;;3.83;3.63;;;;;;;;;;5073076;28;20985;-55
2021/12/19 13:24:35;;;;;;;3.83;3.63;;;;;;;;;;5074504;28;20460;-65
2021/12/19 13:27:05;;;;;;;4.63;4.23;;;;;;;;;;5073066;28;20415;-59
2021/12/19 13:29:31;;;;;;;4.30;4.13;;;;;;;;;;5074271;28;20875;-57
2021/12/19 13:32:16;;;;;;;4.53;4.27;;;;;;;;;;5072972;28;20763;-58
2021/12/19 13:34:42;;;;;;;4.30;4.00;;;;;;;;;;5074259;28;20406;-58
2021/12/19 13:37:08;;;;;;;5.00;4.03;;;;;;;;;;5074134;28;20410;-56
2021/12/19 13:39:34;;;;;;;3.83;3.63;;;;;;;;;;5074154;28;20407;-58
2021/12/19 13:42:11;;;;;;;4.40;4.00;;;;;;;;;;5074072;28;20466;-56
2021/12/19 13:44:38;;;;;;;4.77;4.47;;;;;;;;;;5073988;28;20505;-55
2021/12/19 13:47:23;;;;;;;4.50;4.20;;;;;;;;;;5073840;28;20415;-57
2021/12/19 13:49:49;;;;;;;4.67;4.33;;;;;;;;;;5072426;28;20495;-58
2021/12/19 13:52:16;;;;;;;4.70;4.40;;;;;;;;;;5073259;28;20406;-56
2021/12/19 13:54:42;;;;;;;4.60;4.40;;;;;;;;;;5073728;28;20411;-58
2021/12/19 13:57:18;;;;;;;5.30;5.00;;;;;;;;;;5073410;28;20749;-58
2021/12/19 13:59:44;;;;;;;8.83;4.60;;;;;;;;;;5073790;28;20418;-56
2021/12/19 14:02:11;;;;;;;4.33;4.13;;;;;;;;;;5073545;28;20477;-59
2021/12/19 14:04:37;;;;;;;4.77;4.47;;;;;;;;;;5073571;28;20406;-56
2021/12/19 14:07:10;;;;;;;4.97;4.50;;;;;;;;;;5073352;28;20784;-60
2021/12/19 14:09:43;;;;;;;4.50;4.20;;;;;;;;;;5073492;28;20464;-57
2021/12/19 14:12:11;;;;;;;5.03;4.73;;;;;;;;;;5073493;28;20471;-59
2021/12/19 14:14:37;;;;;;;4.80;4.40;;;;;;;;;;5073563;28;20407;-64
2021/12/19 14:17:09;;;;;;;4.00;3.70;;;;;;;;;;5073548;28;20415;-58
2021/12/19 14:19:37;;;;;;;4.07;3.77;;;;;;;;;;5073229;28;20459;-55
2021/12/19 14:22:04;;;;;;;4.63;4.33;;;;;;;;;;5073877;28;20914;-56
2021/12/19 14:24:38;;;;;;;5.30;4.80;;;;;;;;;;5073941;28;20434;-60
2021/12/19 14:27:10;;;;;;;4.90;4.60;;;;;;;;;;5073903;28;20416;-57
2021/12/19 14:29:37;;;;;;;7.23;4.50;;;;;;;;;;5073684;28;20740;-56
2021/12/19 14:32:17;;;;;;;5.20;4.10;;;;;;;;;;5073519;28;20464;-58
2021/12/19 14:34:48;;;;;;;4.83;4.43;;;;;;;;;;5073424;28;20932;-57
2021/12/19 14:37:19;;;;;;;5.37;5.07;;;;;;;;;;5073619;28;20423;-60
2021/12/19 14:40:04;;;;;;;5.30;5.00;;;;;;;;;;5073610;28;20415;-58
2021/12/19 14:42:37;;;;;;;6.80;4.73;;;;;;;;;;5073187;28;20985;-59
2021/12/19 14:45:05;;;;;;;5.47;5.07;;;;;;;;;;5073390;28;20403;-55
2021/12/19 14:47:35;;;;;;;5.20;4.67;;;;;;;;;;5073420;28;20501;-57
2021/12/19 14:50:10;;;;;;;5.40;5.03;;;;;;;;;;5073073;28;20415;-55
2021/12/19 14:52:36;;;;;;;4.23;4.00;;;;;;;;;;5073248;28;20418;-57
2021/12/19 14:55:12;;;;;;;5.47;5.10;;;;;;;;;;5072968;28;20771;-58
2021/12/19 14:57:38;;;;;;;4.27;4.07;;;;;;;;;;5073301;28;20407;-59
2021/12/19 15:00:05;;;;;;;5.00;4.60;;;;;;;;;;5073196;28;20415;-58
2021/12/19 15:02:31;;;;;;;5.40;4.90;;;;;;;;;;5072333;28;20477;-57
2021/12/19 15:04:58;;;;;;;5.40;5.00;;;;;;;;;;5072921;28;20398;-60
2021/12/19 15:07:26;;;;;;;4.40;4.10;;;;;;;;;;5073171;28;20813;-55
2021/12/19 15:09:52;;;;;;;4.73;4.40;;;;;;;;;;5073174;28;20492;-57
2021/12/19 15:12:18;;;;;;;5.50;5.00;;;;;;;;;;5072720;28;20422;-57
2021/12/19 15:14:44;;;;;;;8.30;5.33;;;;;;;;;;5072731;28;20410;-56
2021/12/19 15:17:10;;;;;;;6.00;5.50;;;;;;;;;;5073282;28;20468;-57
2021/12/19 15:19:36;;;;;;;6.33;5.83;;;;;;;;;;5072654;28;20457;-57
2021/12/19 15:22:02;;;;;;;6.47;5.97;;;;;;;;;;5072529;28;20477;-58
2021/12/19 15:24:29;;;;;;;6.63;6.03;;;;;;;;;;5072991;28;20466;-62
2021/12/19 15:26:55;;;;;;;5.73;5.23;;;;;;;;;;5071353;28;20415;-57
2021/12/19 15:29:21;;;;;;;5.40;4.93;;;;;;;;;;5073041;28;20498;-58
2021/12/19 15:31:50;;;;;;;5.70;5.20;;;;;;;;;;5072770;28;20409;-57
2021/12/19 15:34:16;;;;;;;8.10;6.70;;;;;;;;;;5071425;28;20461;-56
2021/12/19 15:36:42;;;;;;;6.03;5.30;;;;;;;;;;5072752;28;20417;-56
2021/12/19 15:39:08;;;;;;;12.33;6.40;;;;;;;;;;5071509;28;20423;-57
2021/12/19 15:41:35;;;;;;;5.50;5.00;;;;;;;;;;5082634;28;20465;-56
2021/12/19 15:44:01;;;;;;;8.53;5.47;;;;;;;;;;5092342;28;20401;-55
2021/12/19 15:46:27;;;;;;;5.73;5.33;;;;;;;;;;5092376;28;20474;-52
2021/12/19 15:48:53;;;;;;;6.50;5.40;;;;;;;;;;5092200;28;20413;-55